Time;durP1;ratioP1;P1;durP2;ratioP2;P2;SDS_P1;SDS_P2;PMS_P1;PMS_P2;Temp;Humidity;BMP_temperature;BMP_pressure;BME280_temperature;BME280_humidity;BME280_pressure;Samples;Min_cycle;Max_cycle;Signal;HPM_P1;HPM_P2
2023/04/30 00:02:24;;;;;;;45.87;29.97;;;9.50;99.90;;;;;;7308644;19;20201;-79
2023/04/30 00:04:50;;;;;;;45.63;29.17;;;9.50;99.90;;;;;;7286975;19;20217;-79
2023/04/30 00:07:15;;;;;;;48.03;30.13;;;9.40;99.90;;;;;;7287402;19;20207;-81
2023/04/30 00:09:42;;;;;;;48.53;31.67;;;9.30;99.90;;;;;;7287045;19;20642;-80
2023/04/30 00:12:07;;;;;;;50.70;30.97;;;9.20;99.90;;;;;;7286833;19;20551;-80
2023/04/30 00:14:33;;;;;;;46.47;29.13;;;9.30;99.90;;;;;;7285648;19;20275;-80
2023/04/30 00:16:59;;;;;;;52.73;31.37;;;9.30;99.90;;;;;;7286442;19;20208;-80
2023/04/30 00:19:25;;;;;;;50.33;31.17;;;9.30;99.90;;;;;;7306849;19;20263;-80
2023/04/30 00:21:51;;;;;;;51.97;31.57;;;9.50;99.90;;;;;;7288125;19;20219;-80
2023/04/30 00:24:16;;;;;;;52.27;31.33;;;9.50;99.90;;;;;;7286082;19;20181;-80
2023/04/30 00:26:42;;;;;;;51.67;31.00;;;9.50;99.90;;;;;;7286288;19;20184;-80
2023/04/30 00:29:09;;;;;;;48.40;30.37;;;9.50;99.90;;;;;;7288165;19;20222;-80
2023/04/30 00:31:35;;;;;;;57.63;32.50;;;9.50;99.90;;;;;;7284246;19;20193;-80
2023/04/30 00:34:01;;;;;;;51.03;31.03;;;9.30;99.90;;;;;;7283103;19;20255;-77
2023/04/30 00:36:26;;;;;;;53.83;31.20;;;9.30;99.90;;;;;;7297930;19;20283;-80
2023/04/30 00:38:53;;;;;;;54.07;31.43;;;9.20;99.90;;;;;;7307973;19;20514;-80
2023/04/30 00:41:19;;;;;;;53.13;31.77;;;9.20;99.90;;;;;;7303936;19;20206;-79
2023/04/30 00:43:46;;;;;;;49.67;29.83;;;9.10;99.90;;;;;;7311052;19;21164;-80
2023/04/30 00:46:11;;;;;;;49.73;31.07;;;9.00;99.90;;;;;;7315859;19;20206;-80
2023/04/30 00:48:38;;;;;;;53.30;30.97;;;9.00;99.90;;;;;;7315899;19;20176;-80
2023/04/30 00:51:04;;;;;;;48.67;30.27;;;9.00;99.90;;;;;;7314456;19;20204;-80
2023/04/30 00:53:31;;;;;;;54.67;31.20;;;9.10;99.90;;;;;;7287386;19;20199;-80
2023/04/30 00:55:56;;;;;;;52.80;31.10;;;9.10;99.90;;;;;;7300982;19;20187;-79
2023/04/30 00:58:22;;;;;;;49.63;29.40;;;9.10;99.90;;;;;;7300876;19;20187;-80
2023/04/30 01:00:49;;;;;;;51.90;31.27;;;9.20;99.90;;;;;;7285434;19;20303;-80
2023/04/30 01:03:15;;;;;;;51.90;30.63;;;9.10;99.90;;;;;;7287055;19;20211;-80
2023/04/30 01:05:41;;;;;;;48.47;29.90;;;9.10;99.90;;;;;;7284283;19;20194;-81
2023/04/30 01:08:09;;;;;;;49.40;30.83;;;9.10;99.90;;;;;;7286202;19;20215;-80
2023/04/30 01:10:53;;;;;;;52.07;30.33;;;9.20;99.90;;;;;;7287718;19;20190;-80
2023/04/30 01:13:31;;;;;;;51.60;31.33;;;9.20;99.90;;;;;;7286648;19;20195;-80
2023/04/30 01:16:21;;;;;;;55.53;31.53;;;9.20;99.90;;;;;;7273200;19;20187;-79
2023/04/30 01:19:16;;;;;;;59.47;32.17;;;9.10;99.90;;;;;;7286281;19;20263;-80
2023/04/30 01:21:44;;;;;;;58.50;32.97;;;9.10;99.90;;;;;;7183607;19;2004607;-80
2023/04/30 01:24:28;;;;;;;60.17;34.53;;;9.00;99.90;;;;;;7284854;19;21500;-81
2023/04/30 01:27:24;;;;;;;59.67;35.40;;;8.90;99.90;;;;;;7285295;19;20187;-80
2023/04/30 01:29:54;;;;;;;65.03;34.63;;;8.60;99.90;;;;;;7183556;19;2005914;-81
2023/04/30 01:32:21;;;;;;;59.67;34.40;;;8.30;99.90;;;;;;7283429;19;20191;-80
2023/04/30 01:34:46;;;;;;;60.33;35.10;;;8.20;99.90;;;;;;7286530;19;20251;-80
2023/04/30 01:37:27;;;;;;;61.97;34.33;;;8.10;99.90;;;;;;7284592;19;20190;-80
2023/04/30 01:40:17;;;;;;;60.83;34.33;;;8.00;99.90;;;;;;7284424;19;20218;-80
2023/04/30 01:43:16;;;;;;;60.17;35.07;;;8.00;99.90;;;;;;7182210;19;2004547;-80
2023/04/30 01:46:00;;;;;;;57.73;34.37;;;8.00;99.90;;;;;;7182118;19;2005671;-81
2023/04/30 01:49:00;;;;;;;61.13;36.20;;;8.20;99.90;;;;;;7284256;19;20186;-78
2023/04/30 01:51:40;;;;;;;58.43;36.03;;;8.20;99.90;;;;;;7181557;19;2004493;-78
2023/04/30 01:54:23;;;;;;;66.27;37.43;;;8.30;99.90;;;;;;7180839;19;2005007;-77
2023/04/30 01:57:06;;;;;;;61.87;35.57;;;8.40;99.90;;;;;;7282845;19;20198;-78
2023/04/30 01:59:34;;;;;;;67.40;36.60;;;8.40;99.90;;;;;;7179968;19;2004631;-79
2023/04/30 02:02:01;;;;;;;64.37;35.40;;;8.40;99.90;;;;;;7283092;19;20573;-78
2023/04/30 02:04:26;;;;;;;63.30;34.97;;;8.40;99.90;;;;;;7301114;19;20642;-78
2023/04/30 02:06:52;;;;;;;63.80;35.63;;;8.40;99.90;;;;;;7300953;19;20204;-79
2023/04/30 02:09:18;;;;;;;66.80;36.43;;;8.40;99.90;;;;;;7291282;19;20246;-79
2023/04/30 02:11:44;;;;;;;64.47;36.13;;;8.40;99.90;;;;;;7289550;19;20188;-79
2023/04/30 02:14:10;;;;;;;63.67;35.23;;;8.20;99.90;;;;;;7289833;19;20207;-78
2023/04/30 02:16:36;;;;;;;60.00;34.17;;;8.10;99.90;;;;;;7290400;19;20252;-78
2023/04/30 02:19:02;;;;;;;60.43;35.17;;;8.00;99.90;;;;;;7290069;19;20181;-79
2023/04/30 02:21:27;;;;;;;58.60;33.27;;;8.00;99.90;;;;;;7296973;19;20216;-78
2023/04/30 02:23:53;;;;;;;58.97;32.63;;;8.00;99.90;;;;;;7312636;19;20604;-79
2023/04/30 02:26:20;;;;;;;55.57;33.80;;;8.00;99.90;;;;;;7290206;19;20191;-79
2023/04/30 02:28:46;;;;;;;59.63;32.20;;;8.00;99.90;;;;;;7289282;19;20685;-80
2023/04/30 02:31:12;;;;;;;50.93;31.70;;;8.10;99.90;;;;;;7289554;19;20179;-78
2023/04/30 02:33:37;;;;;;;50.63;28.90;;;8.20;99.90;;;;;;7289859;19;20207;-78
2023/04/30 02:36:03;;;;;;;45.10;27.60;;;8.20;99.90;;;;;;7290156;19;20189;-78
2023/04/30 02:38:29;;;;;;;47.40;28.40;;;8.20;99.90;;;;;;7290600;19;20187;-78
2023/04/30 02:40:55;;;;;;;52.20;29.33;;;8.10;99.90;;;;;;7310639;19;20271;-78
2023/04/30 02:43:21;;;;;;;54.17;31.20;;;8.10;99.90;;;;;;7290951;19;20180;-78
2023/04/30 02:45:47;;;;;;;55.70;30.97;;;8.00;99.90;;;;;;7290297;19;20694;-79
2023/04/30 02:48:13;;;;;;;51.50;31.00;;;8.00;99.90;;;;;;7289805;19;20182;-78
2023/04/30 02:50:39;;;;;;;52.87;31.23;;;7.90;99.90;;;;;;7289527;19;20585;-78
2023/04/30 02:53:05;;;;;;;58.13;31.60;;;8.00;99.90;;;;;;7288948;19;20764;-79
2023/04/30 02:55:31;;;;;;;54.03;31.20;;;8.10;99.90;;;;;;7288379;19;20246;-79
2023/04/30 02:57:57;;;;;;;53.53;30.53;;;8.20;99.90;;;;;;7301727;19;20185;-78
2023/04/30 03:00:26;;;;;;;50.13;29.23;;;8.10;99.90;;;;;;7311229;19;20219;-79
2023/04/30 03:02:52;;;;;;;50.00;29.37;;;8.00;99.90;;;;;;7289915;19;20292;-79
2023/04/30 03:05:18;;;;;;;56.63;30.47;;;7.90;99.90;;;;;;7288551;19;20179;-79
2023/04/30 03:07:43;;;;;;;52.83;29.47;;;8.00;99.90;;;;;;7289158;19;20217;-79
2023/04/30 03:10:09;;;;;;;52.13;30.43;;;8.10;99.90;;;;;;7289461;19;20214;-78
2023/04/30 03:12:35;;;;;;;55.03;31.07;;;8.10;99.90;;;;;;7288344;19;20206;-79
2023/04/30 03:15:01;;;;;;;51.70;30.03;;;8.00;99.90;;;;;;7289694;19;20910;-78
2023/04/30 03:17:26;;;;;;;51.50;29.70;;;8.00;99.90;;;;;;7308417;19;20673;-78
2023/04/30 03:19:52;;;;;;;53.53;30.77;;;7.90;99.90;;;;;;7298410;19;20186;-79
2023/04/30 03:22:19;;;;;;;55.47;29.53;;;8.00;99.90;;;;;;7288259;19;20247;-79
2023/04/30 03:24:45;;;;;;;51.17;29.60;;;8.00;99.90;;;;;;7288312;19;20185;-79
2023/04/30 03:27:11;;;;;;;51.27;30.10;;;8.00;99.90;;;;;;7286178;19;20218;-78
2023/04/30 03:29:37;;;;;;;50.60;28.90;;;8.00;99.90;;;;;;7289138;19;20757;-79
2023/04/30 03:32:03;;;;;;;54.17;29.97;;;7.90;99.90;;;;;;7286972;19;20186;-78
2023/04/30 03:34:31;;;;;;;52.47;29.20;;;8.00;99.90;;;;;;7287264;19;20670;-78
2023/04/30 03:36:57;;;;;;;51.30;28.73;;;8.00;99.90;;;;;;7306539;19;20190;-77
2023/04/30 03:39:22;;;;;;;48.87;28.00;;;8.00;99.90;;;;;;7298671;19;20535;-78
2023/04/30 03:41:48;;;;;;;49.23;28.27;;;8.00;99.90;;;;;;7287908;19;20238;-80
2023/04/30 03:44:14;;;;;;;45.67;26.10;;;7.90;99.90;;;;;;7288586;19;20201;-79
2023/04/30 03:46:43;;;;;;;42.73;26.20;;;7.90;99.90;;;;;;7286927;19;20354;-79
2023/04/30 03:49:09;;;;;;;46.17;26.37;;;7.90;99.90;;;;;;7288315;19;20201;-79
2023/04/30 03:51:40;;;;;;;47.87;28.20;;;7.90;99.90;;;;;;7286022;19;20634;-79
2023/04/30 03:54:06;;;;;;;44.63;26.40;;;7.90;99.90;;;;;;7286637;19;20303;-79
2023/04/30 03:56:34;;;;;;;47.80;27.53;;;7.90;99.90;;;;;;7285661;19;20194;-79
2023/04/30 03:59:00;;;;;;;47.23;27.80;;;7.90;99.90;;;;;;7285858;19;20652;-78
2023/04/30 04:01:27;;;;;;;44.10;25.57;;;7.80;99.90;;;;;;7308779;19;20178;-79
2023/04/30 04:03:53;;;;;;;49.00;26.20;;;7.80;99.90;;;;;;7288531;19;20186;-79
2023/04/30 04:06:19;;;;;;;46.97;27.77;;;7.80;99.90;;;;;;7291976;19;20191;-79
2023/04/30 04:08:45;;;;;;;42.87;26.07;;;7.80;99.90;;;;;;7306720;19;20223;-80
2023/04/30 04:11:11;;;;;;;45.97;26.70;;;7.70;99.90;;;;;;7307142;19;20192;-80
2023/04/30 04:13:37;;;;;;;45.30;26.43;;;7.70;99.90;;;;;;7304567;19;20198;-78
2023/04/30 04:16:03;;;;;;;48.80;27.83;;;7.70;99.90;;;;;;7317160;19;20234;-78
2023/04/30 04:18:30;;;;;;;51.30;28.40;;;7.80;99.90;;;;;;7317755;19;20214;-77
2023/04/30 04:20:55;;;;;;;53.30;27.83;;;7.90;99.90;;;;;;7339067;19;20181;-78
2023/04/30 04:23:22;;;;;;;55.13;28.77;;;7.90;99.90;;;;;;7287446;19;20265;-79
2023/04/30 04:25:48;;;;;;;47.73;26.27;;;7.80;99.90;;;;;;7284172;19;20206;-79
2023/04/30 04:28:17;;;;;;;44.67;25.70;;;7.70;99.90;;;;;;7287116;19;20667;-79
2023/04/30 04:30:43;;;;;;;46.33;26.20;;;7.60;99.90;;;;;;7286203;19;20185;-79
2023/04/30 04:33:10;;;;;;;43.43;25.47;;;7.60;99.90;;;;;;7283557;19;20226;-79
2023/04/30 04:35:36;;;;;;;39.87;23.97;;;7.70;99.90;;;;;;7286890;19;20188;-79
2023/04/30 04:38:03;;;;;;;42.67;24.37;;;7.70;99.90;;;;;;7285043;19;20182;-79
2023/04/30 04:40:30;;;;;;;40.60;24.77;;;7.90;99.90;;;;;;7283791;19;20568;-79
2023/04/30 04:42:57;;;;;;;47.03;24.73;;;8.20;99.90;;;;;;7309151;19;20182;-79
2023/04/30 04:45:22;;;;;;;39.50;22.80;;;8.50;99.90;;;;;;7285505;19;20278;-79
2023/04/30 04:47:49;;;;;;;38.97;23.17;;;8.90;99.90;;;;;;7285173;19;20297;-79
2023/04/30 04:50:16;;;;;;;35.53;21.73;;;9.20;99.90;;;;;;7286319;19;20205;-79
2023/04/30 04:52:42;;;;;;;34.03;21.33;;;9.40;99.90;;;;;;7284397;19;20844;-79
2023/04/30 04:55:08;;;;;;;35.33;20.77;;;9.80;99.90;;;;;;7284143;19;20183;-79
2023/04/30 04:57:35;;;;;;;33.00;19.57;;;10.00;99.90;;;;;;7283472;19;20194;-78
2023/04/30 05:00:01;;;;;;;32.07;19.07;;;10.10;99.90;;;;;;7283228;19;20722;-78
2023/04/30 05:02:27;;;;;;;31.83;18.80;;;10.40;99.90;;;;;;7306093;19;20191;-78
2023/04/30 05:04:52;;;;;;;33.07;19.20;;;11.10;99.90;;;;;;7286159;19;20192;-79
2023/04/30 05:07:18;;;;;;;28.37;17.53;;;11.70;99.90;;;;;;7285140;19;20254;-79
2023/04/30 05:09:48;;;;;;;25.40;15.83;;;12.30;99.90;;;;;;7285662;19;20206;-79
2023/04/30 05:12:14;;;;;;;26.97;16.53;;;13.20;99.90;;;;;;7285395;19;20535;-79
2023/04/30 05:14:40;;;;;;;24.73;16.33;;;13.60;99.90;;;;;;7284096;19;20193;-79
2023/04/30 05:17:06;;;;;;;23.90;16.20;;;13.30;99.90;;;;;;7285053;19;20188;-78
2023/04/30 05:19:32;;;;;;;26.67;16.53;;;13.70;99.90;;;;;;7285649;19;20550;-78
2023/04/30 05:22:00;;;;;;;23.67;15.23;;;14.30;99.90;;;;;;7299992;19;20185;-77
2023/04/30 05:24:26;;;;;;;24.27;15.57;;;14.70;99.90;;;;;;7306374;19;20192;-78
2023/04/30 05:26:52;;;;;;;23.17;14.77;;;15.30;99.90;;;;;;7287136;19;20187;-78
2023/04/30 05:29:18;;;;;;;22.27;14.47;;;15.70;99.90;;;;;;7285300;19;20245;-79
2023/04/30 05:31:44;;;;;;;22.00;13.97;;;16.00;99.90;;;;;;7284779;19;20196;-77
2023/04/30 05:34:09;;;;;;;21.97;14.20;;;16.30;99.90;;;;;;7281667;19;20195;-78
2023/04/30 05:36:35;;;;;;;23.77;14.07;;;16.80;99.90;;;;;;7283919;19;20200;-78
2023/04/30 05:39:01;;;;;;;22.73;13.83;;;17.00;99.90;;;;;;7284946;19;20193;-78
2023/04/30 05:41:26;;;;;;;21.87;13.53;;;17.20;99.90;;;;;;7308576;19;20192;-77
2023/04/30 05:43:52;;;;;;;20.13;13.37;;;17.60;99.90;;;;;;7291713;19;20193;-78
2023/04/30 05:46:18;;;;;;;17.70;12.40;;;18.10;99.90;;;;;;7291640;19;20182;-79
2023/04/30 05:48:44;;;;;;;17.57;12.53;;;18.50;99.90;;;;;;7290656;19;20196;-78
2023/04/30 05:51:10;;;;;;;16.93;11.93;;;19.20;99.90;;;;;;7291648;19;20202;-78
2023/04/30 05:53:35;;;;;;;20.97;12.37;;;19.80;99.90;;;;;;7291245;19;20206;-78
2023/04/30 05:56:02;;;;;;;19.47;12.03;;;20.30;99.90;;;;;;7291370;19;20190;-78
2023/04/30 05:58:27;;;;;;;19.63;11.83;;;21.00;99.90;;;;;;7306436;19;20216;-78
2023/04/30 06:00:53;;;;;;;17.07;10.63;;;21.80;99.90;;;;;;7302907;19;20184;-78
2023/04/30 06:03:19;;;;;;;16.43;10.77;;;22.00;99.90;;;;;;7291618;19;20199;-78
2023/04/30 06:05:46;;;;;;;16.93;11.17;;;22.10;99.90;;;;;;7289497;19;20736;-77
2023/04/30 06:08:12;;;;;;;17.60;11.20;;;22.40;99.90;;;;;;7287339;19;20550;-75
2023/04/30 06:10:38;;;;;;;16.07;10.47;;;22.60;99.90;;;;;;7287062;19;20191;-77
2023/04/30 06:13:04;;;;;;;17.10;10.40;;;22.80;99.90;;;;;;7285453;19;20192;-77
2023/04/30 06:15:30;;;;;;;16.00;10.60;;;23.00;99.90;;;;;;7284632;19;20553;-77
2023/04/30 06:17:55;;;;;;;19.10;11.17;;;23.00;99.90;;;;;;7308715;19;20200;-77
2023/04/30 06:20:21;;;;;;;15.30;10.50;;;23.10;99.90;;;;;;7289218;19;20666;-77
2023/04/30 06:22:47;;;;;;;17.33;10.83;;;22.80;99.90;;;;;;7289553;19;20277;-77
2023/04/30 06:25:13;;;;;;;17.67;10.57;;;22.90;99.90;;;;;;7288621;19;20199;-77
2023/04/30 06:27:39;;;;;;;15.33;10.10;;;23.40;99.90;;;;;;7288049;19;20260;-78
2023/04/30 06:30:05;;;;;;;19.17;10.87;;;23.90;99.90;;;;;;7288538;19;20204;-78
2023/04/30 06:32:31;;;;;;;17.73;10.60;;;24.20;99.90;;;;;;7286821;19;20176;-78
2023/04/30 06:34:57;;;;;;;18.13;11.20;;;24.20;99.90;;;;;;7310043;19;20808;-76
2023/04/30 06:37:23;;;;;;;18.43;11.60;;;24.40;99.90;;;;;;7286915;19;20185;-76
2023/04/30 06:39:50;;;;;;;20.73;11.40;;;24.70;99.90;;;;;;7285257;19;20285;-76
2023/04/30 06:42:16;;;;;;;18.33;12.45;;;24.70;99.90;;;;;;7287161;19;20204;-77
2023/04/30 06:44:42;;;;;;;19.97;12.87;;;24.70;99.90;;;;;;7285666;19;20549;-77
2023/04/30 06:47:07;;;;;;;18.15;12.63;;;24.30;99.90;;;;;;7285539;19;20196;-76
2023/04/30 06:49:33;;;;;;;19.13;13.53;;;24.30;99.90;;;;;;7288035;19;20192;-76
2023/04/30 06:52:00;;;;;;;19.80;13.83;;;24.30;99.90;;;;;;7288519;19;20209;-76
2023/04/30 06:54:26;;;;;;;16.50;12.53;;;24.80;99.90;;;;;;7308332;19;20195;-76
2023/04/30 06:56:52;;;;;;;18.40;13.63;;;25.40;99.90;;;;;;7287928;19;20256;-75
2023/04/30 06:59:18;;;;;;;20.17;14.10;;;25.60;99.90;;;;;;7287216;19;20295;-75
2023/04/30 07:01:44;;;;;;;26.15;17.05;;;25.00;99.90;;;;;;7287225;19;20193;-75
2023/04/30 07:04:10;;;;;;;20.43;14.03;;;24.80;99.90;;;;;;7286490;19;20552;-76
2023/04/30 07:06:36;;;;;;;21.53;14.73;;;25.00;99.90;;;;;;7287028;19;20196;-76
2023/04/30 07:09:02;;;;;;;21.53;15.20;;;25.20;99.90;;;;;;7286237;19;20193;-76
2023/04/30 07:11:28;;;;;;;22.50;16.00;;;25.60;99.90;;;;;;7300170;19;20196;-77
2023/04/30 07:13:54;;;;;;;20.60;15.00;;;25.80;99.60;;;;;;7303365;19;20727;-77
2023/04/30 07:16:21;;;;;;;21.80;14.90;;;25.70;99.90;;;;;;7286100;19;20585;-76
2023/04/30 07:18:48;;;;;;;22.90;15.17;;;25.30;98.70;;;;;;7287195;19;20553;-76
2023/04/30 07:21:14;;;;;;;24.73;16.55;;;25.70;99.70;;;;;;7285545;19;20279;-76
2023/04/30 07:23:40;;;;;;;21.80;16.20;;;26.80;97.30;;;;;;7286939;19;20189;-76
2023/04/30 07:26:06;;;;;;;20.13;15.18;;;26.60;95.40;;;;;;7286084;19;20688;-76
2023/04/30 07:28:31;;;;;;;28.95;16.38;;;27.20;96.10;;;;;;7287042;19;20211;-77
2023/04/30 07:30:57;;;;;;;22.45;16.63;;;27.80;93.90;;;;;;7310363;19;20195;-76
2023/04/30 07:33:23;;;;;;;23.65;16.38;;;26.50;94.30;;;;;;7289253;19;20288;-77
2023/04/30 07:35:50;;;;;;;22.75;15.88;;;27.00;94.90;;;;;;7289981;19;20214;-77
2023/04/30 07:38:17;;;;;;;21.02;16.40;;;28.50;93.50;;;;;;7290768;19;20195;-76
2023/04/30 07:40:43;;;;;;;19.90;15.35;;;29.90;90.60;;;;;;7287374;19;20193;-77
2023/04/30 07:43:10;;;;;;;19.27;14.85;;;31.00;86.20;;;;;;7288983;19;20749;-76
2023/04/30 07:45:36;;;;;;;21.35;15.82;;;31.20;82.70;;;;;;7286185;19;20192;-76
2023/04/30 07:48:02;;;;;;;25.98;15.98;;;29.70;80.70;;;;;;7285362;19;20244;-76
2023/04/30 07:50:32;;;;;;;21.35;16.90;;;28.20;82.70;;;;;;7307474;19;20191;-76
2023/04/30 07:52:58;;;;;;;21.95;16.23;;;28.10;85.10;;;;;;7302962;19;20199;-76
2023/04/30 07:55:24;;;;;;;21.40;15.85;;;27.50;87.40;;;;;;7300250;19;20184;-76
2023/04/30 07:57:50;;;;;;;19.40;14.70;;;27.40;86.60;;;;;;7284764;19;20206;-76
2023/04/30 08:00:16;;;;;;;19.17;14.50;;;27.30;87.80;;;;;;7290145;19;20197;-77
2023/04/30 08:02:47;;;;;;;20.90;14.70;;;27.80;84.30;;;;;;7287588;19;20553;-77
2023/04/30 08:05:12;;;;;;;19.92;14.57;;;28.50;81.80;;;;;;7282623;19;20208;-77
2023/04/30 08:07:38;;;;;;;18.10;13.93;;;29.00;82.00;;;;;;7284110;19;20652;-76
2023/04/30 08:10:05;;;;;;;19.13;13.57;;;30.60;79.10;;;;;;7286277;19;20181;-77
2023/04/30 08:12:30;;;;;;;17.67;13.02;;;29.50;77.90;;;;;;7285425;19;20188;-76
2023/04/30 08:15:04;;;;;;;18.30;12.88;;;29.90;77.00;;;;;;7307668;19;20678;-76
2023/04/30 08:17:32;;;;;;;20.20;13.52;;;28.70;77.00;;;;;;7269049;19;20553;-76
2023/04/30 08:20:00;;;;;;;18.65;12.95;;;28.00;79.20;;;;;;7298838;19;20640;-76
2023/04/30 08:22:25;;;;;;;16.75;12.23;;;27.30;81.30;;;;;;7305876;19;20184;-77
2023/04/30 08:24:51;;;;;;;18.38;12.38;;;28.00;80.40;;;;;;7285132;19;20203;-76
2023/04/30 08:27:17;;;;;;;18.30;13.98;;;29.40;77.40;;;;;;7282076;19;20557;-77
2023/04/30 08:29:43;;;;;;;18.05;12.98;;;29.00;74.10;;;;;;7285425;19;20193;-76
2023/04/30 08:32:09;;;;;;;18.15;12.32;;;27.90;76.00;;;;;;7284650;19;20245;-77
2023/04/30 08:34:35;;;;;;;15.88;11.52;;;28.40;79.50;;;;;;7284400;19;20204;-76
2023/04/30 08:37:00;;;;;;;18.52;12.30;;;28.20;75.90;;;;;;7284926;19;20244;-76
2023/04/30 08:39:26;;;;;;;18.15;12.80;;;27.00;76.00;;;;;;7305784;19;20252;-76
2023/04/30 08:41:56;;;;;;;17.55;12.25;;;26.10;79.00;;;;;;7283919;19;20204;-76
2023/04/30 08:44:22;;;;;;;14.13;10.00;;;26.20;80.90;;;;;;7284380;19;20197;-76
2023/04/30 08:46:53;;;;;;;21.83;11.10;;;26.30;77.00;;;;;;7283785;19;20202;-76
2023/04/30 08:49:22;;;;;;;16.25;10.93;;;27.10;78.80;;;;;;7284436;19;20178;-76
2023/04/30 08:51:48;;;;;;;19.20;11.05;;;27.10;78.50;;;;;;7284146;19;20217;-76
2023/04/30 08:54:15;;;;;;;13.93;9.48;;;27.80;76.10;;;;;;7283283;19;20213;-76
2023/04/30 08:56:41;;;;;;;14.75;8.10;;;28.60;75.00;;;;;;7283358;19;20195;-76
2023/04/30 08:59:07;;;;;;;13.55;9.10;;;28.40;73.50;;;;;;7282911;19;20620;-76
2023/04/30 09:01:34;;;;;;;12.15;7.93;;;26.70;72.80;;;;;;7283136;19;20231;-76
2023/04/30 09:04:03;;;;;;;12.88;8.05;;;26.00;74.60;;;;;;7287184;19;20551;-76
2023/04/30 09:06:30;;;;;;;14.40;8.07;;;26.00;75.50;;;;;;7295859;19;20193;-79
2023/04/30 09:08:56;;;;;;;11.60;6.70;;;25.90;74.60;;;;;;7305483;19;20966;-76
2023/04/30 09:11:27;;;;;;;13.48;7.00;;;25.40;75.90;;;;;;7283146;19;20601;-76
2023/04/30 09:14:02;;;;;;;11.50;6.90;;;26.30;76.40;;;;;;7282021;19;20196;-76
2023/04/30 09:16:43;;;;;;;10.82;6.38;;;27.50;72.80;;;;;;7288071;19;20525;-76
2023/04/30 09:19:21;;;;;;;13.35;6.70;;;27.10;71.40;;;;;;7183807;19;2004630;-76
2023/04/30 09:21:46;;;;;;;12.68;7.50;;;27.40;72.60;;;;;;7290352;19;20220;-76
2023/04/30 09:24:12;;;;;;;13.95;7.57;;;27.40;72.70;;;;;;7290494;19;20652;-76
2023/04/30 09:26:38;;;;;;;13.93;8.25;;;28.80;72.20;;;;;;7288519;19;20205;-76
2023/04/30 09:29:07;;;;;;;10.75;6.55;;;27.60;68.90;;;;;;7290570;19;20197;-76
2023/04/30 09:31:34;;;;;;;10.55;6.60;;;26.90;71.10;;;;;;7289983;19;20269;-76
2023/04/30 09:34:00;;;;;;;11.07;7.13;;;26.40;70.30;;;;;;7288511;19;20280;-76
2023/04/30 09:36:26;;;;;;;12.25;6.90;;;25.70;72.10;;;;;;7310859;19;20197;-76
2023/04/30 09:38:52;;;;;;;10.40;6.28;;;25.40;72.70;;;;;;7290761;19;20188;-76
2023/04/30 09:41:25;;;;;;;13.55;6.95;;;25.30;71.40;;;;;;7289550;19;20922;-76
2023/04/30 09:43:55;;;;;;;10.50;6.32;;;25.40;71.70;;;;;;7289543;19;20203;-76
2023/04/30 09:46:28;;;;;;;13.57;8.03;;;25.00;72.10;;;;;;7287716;19;20260;-76
2023/04/30 09:48:59;;;;;;;14.75;8.40;;;25.30;74.80;;;;;;7289322;19;20278;-76
2023/04/30 09:51:25;;;;;;;9.98;5.90;;;26.10;74.30;;;;;;7289866;19;20188;-76
2023/04/30 09:53:52;;;;;;;13.40;7.00;;;26.50;70.70;;;;;;7288230;19;20185;-76
2023/04/30 09:56:22;;;;;;;13.50;8.70;;;27.10;72.60;;;;;;7287881;19;20189;-76
2023/04/30 09:58:53;;;;;;;27.98;18.63;;;26.90;70.70;;;;;;7287733;19;20198;-76
2023/04/30 10:01:21;;;;;;;20.60;13.63;;;26.60;70.20;;;;;;7288703;19;20185;-76
2023/04/30 10:03:48;;;;;;;28.58;20.42;;;26.10;70.30;;;;;;7289186;19;20596;-76
2023/04/30 10:06:17;;;;;;;10.82;6.80;;;26.20;72.00;;;;;;7287999;19;20185;-76
2023/04/30 10:08:50;;;;;;;12.60;7.50;;;26.50;71.20;;;;;;7288608;19;20195;-76
2023/04/30 10:11:21;;;;;;;8.75;5.95;;;27.20;69.90;;;;;;7289455;19;20652;-76
2023/04/30 10:14:02;;;;;;;9.55;6.38;;;27.40;67.60;;;;;;7287683;19;20181;-76
2023/04/30 10:16:47;;;;;;;47.20;34.72;;;26.10;68.10;;;;;;7288810;19;20184;-76
2023/04/30 10:19:24;;;;;;;17.63;11.07;;;25.60;70.90;;;;;;7184326;19;2004370;-76
2023/04/30 10:21:51;;;;;;;10.68;5.50;;;26.20;70.00;;;;;;7289132;19;20178;-76
2023/04/30 10:24:19;;;;;;;11.50;6.82;;;25.40;69.10;;;;;;7289934;19;20225;-76
2023/04/30 10:26:46;;;;;;;15.70;8.63;;;26.20;71.60;;;;;;7283980;19;20185;-76
2023/04/30 10:29:16;;;;;;;8.00;3.75;;;27.20;70.70;;;;;;7288439;19;20569;-75
2023/04/30 10:31:48;;;;;;;7.63;3.50;;;27.60;65.80;;;;;;7287520;19;20570;-76
2023/04/30 10:34:41;;;;;;;10.52;6.07;;;27.10;63.80;;;;;;7287248;19;20541;-76
2023/04/30 10:37:11;;;;;;;9.93;5.65;;;26.30;67.00;;;;;;7184426;19;2004586;-76
2023/04/30 10:39:37;;;;;;;8.73;5.45;;;27.00;67.40;;;;;;7287188;19;20223;-76
2023/04/30 10:42:05;;;;;;;8.45;5.10;;;26.50;65.90;;;;;;7287556;19;20189;-76
2023/04/30 10:44:37;;;;;;;9.82;4.75;;;25.90;66.80;;;;;;7286626;19;20533;-76
2023/04/30 10:47:03;;;;;;;5.53;3.30;;;25.30;68.60;;;;;;7288456;19;20193;-77
2023/04/30 10:49:29;;;;;;;16.55;10.05;;;25.30;64.30;;;;;;7299551;19;20184;-78
2023/04/30 10:51:59;;;;;;;18.40;12.07;;;25.40;66.30;;;;;;7312932;19;20210;-76
2023/04/30 10:54:27;;;;;;;27.88;19.13;;;26.00;65.30;;;;;;7290158;19;20217;-76
2023/04/30 10:57:09;;;;;;;14.20;6.43;;;26.50;65.40;;;;;;7295492;19;20276;-76
2023/04/30 10:59:35;;;;;;;48.40;33.58;;;26.80;63.60;;;;;;7196220;19;2004733;-77
2023/04/30 11:02:02;;;;;;;8.55;3.83;;;28.00;64.00;;;;;;7296195;19;20204;-77
2023/04/30 11:04:28;;;;;;;48.80;27.15;;;27.60;60.90;;;;;;7310526;19;20297;-76
2023/04/30 11:07:01;;;;;;;8.20;4.68;;;26.90;63.90;;;;;;7286352;19;20192;-77
2023/04/30 11:09:41;;;;;;;13.02;7.93;;;26.30;63.00;;;;;;7287901;19;20188;-77
2023/04/30 11:12:12;;;;;;;21.88;12.95;;;26.00;63.20;;;;;;7184680;19;2004756;-77
2023/04/30 11:14:44;;;;;;;10.25;6.05;;;25.80;63.90;;;;;;7284363;19;20195;-77
2023/04/30 11:17:22;;;;;;;12.35;6.60;;;25.80;64.30;;;;;;7285727;19;20193;-76
2023/04/30 11:19:50;;;;;;;10.75;6.32;;;25.60;65.60;;;;;;7285007;19;20193;-76
2023/04/30 11:22:17;;;;;;;12.52;7.70;;;25.60;64.70;;;;;;7286179;19;20197;-76
2023/04/30 11:24:58;;;;;;;16.17;9.77;;;25.20;65.10;;;;;;7285872;19;20193;-76
2023/04/30 11:27:27;;;;;;;8.87;4.33;;;24.90;66.70;;;;;;7286583;19;20213;-76
2023/04/30 11:29:54;;;;;;;7.53;3.90;;;25.40;64.70;;;;;;7286598;19;20185;-76
2023/04/30 11:32:21;;;;;;;9.40;4.30;;;26.20;65.40;;;;;;7285398;19;20182;-76
2023/04/30 11:34:48;;;;;;;7.72;4.55;;;26.20;64.80;;;;;;7284776;19;20185;-75
2023/04/30 11:37:28;;;;;;;6.57;3.63;;;25.80;64.30;;;;;;7285795;19;20188;-77
2023/04/30 11:39:54;;;;;;;8.65;4.43;;;26.10;63.60;;;;;;7283187;19;20266;-76
2023/04/30 11:42:20;;;;;;;9.68;4.45;;;25.60;64.60;;;;;;7287312;19;20178;-75
2023/04/30 11:44:46;;;;;;;8.45;4.97;;;26.00;66.20;;;;;;7284990;19;20181;-76
2023/04/30 11:47:16;;;;;;;10.48;4.75;;;26.10;66.70;;;;;;7285124;19;20601;-75
2023/04/30 11:49:44;;;;;;;8.18;4.03;;;26.20;62.60;;;;;;7284663;19;20548;-76
2023/04/30 11:52:12;;;;;;;6.93;4.40;;;26.10;61.80;;;;;;7283953;19;20185;-76
2023/04/30 11:54:38;;;;;;;8.52;4.53;;;27.60;62.00;;;;;;7284497;19;20203;-75
2023/04/30 11:57:05;;;;;;;8.50;4.80;;;28.20;62.80;;;;;;7284262;19;20196;-76
2023/04/30 11:59:40;;;;;;;8.02;4.45;;;29.00;60.60;;;;;;7286428;19;20197;-76
2023/04/30 12:02:06;;;;;;;12.15;5.90;;;28.60;62.30;;;;;;7285771;19;20309;-76
2023/04/30 12:04:32;;;;;;;9.43;5.10;;;28.10;63.50;;;;;;7284220;19;20318;-77
2023/04/30 12:06:59;;;;;;;6.50;3.33;;;27.80;59.60;;;;;;7307080;19;20234;-77
2023/04/30 12:09:25;;;;;;;9.82;5.97;;;28.50;61.50;;;;;;7284471;19;20192;-76
2023/04/30 12:11:51;;;;;;;15.25;6.90;;;28.90;60.20;;;;;;7284414;19;20624;-77
2023/04/30 12:14:16;;;;;;;8.48;4.78;;;29.20;61.90;;;;;;7281147;19;20837;-77
2023/04/30 12:16:49;;;;;;;6.95;4.35;;;29.00;58.60;;;;;;7285094;19;20197;-76
2023/04/30 12:19:16;;;;;;;9.27;5.15;;;28.40;61.00;;;;;;7283344;19;20191;-77
2023/04/30 12:21:45;;;;;;;9.80;5.25;;;27.70;61.90;;;;;;7281983;19;20249;-77
2023/04/30 12:24:12;;;;;;;10.35;5.28;;;26.30;65.30;;;;;;7285231;19;20666;-77
2023/04/30 12:26:39;;;;;;;7.82;4.57;;;24.90;67.70;;;;;;7284638;19;20196;-78
2023/04/30 12:29:08;;;;;;;9.30;4.80;;;24.30;67.30;;;;;;7283059;19;20192;-77
2023/04/30 12:31:35;;;;;;;6.77;4.00;;;24.10;67.80;;;;;;7284469;19;20198;-77
2023/04/30 12:34:05;;;;;;;7.97;4.43;;;23.50;68.30;;;;;;7286798;19;20569;-76
2023/04/30 12:36:33;;;;;;;7.47;3.47;;;23.20;71.00;;;;;;7284829;19;20189;-76
2023/04/30 12:39:08;;;;;;;7.00;3.63;;;22.50;68.40;;;;;;7306932;19;20189;-76